Time;durP1;ratioP1;P1;durP2;ratioP2;P2;SDS_P1;SDS_P2;PMS_P1;PMS_P2;Temp;Humidity;BMP_temperature;BMP_pressure;BME280_temperature;BME280_humidity;BME280_pressure;Samples;Min_cycle;Max_cycle;Signal;HPM_P1;HPM_P2
2023/04/05 00:00:54;;;;;;;2.77;1.47;;;5.70;27.10;;;;;;4974311;28;20548;-66
2023/04/05 00:03:20;;;;;;;2.30;1.20;;;5.60;28.50;;;;;;4971691;28;20206;-66
2023/04/05 00:05:48;;;;;;;2.20;1.23;;;5.50;28.90;;;;;;4973795;28;20171;-67
2023/04/05 00:08:23;;;;;;;2.40;1.27;;;5.70;27.20;;;;;;4972892;28;20457;-67
2023/04/05 00:10:49;;;;;;;4.75;1.85;;;5.70;27.50;;;;;;4973628;28;20170;-67
2023/04/05 00:13:15;;;;;;;3.65;1.85;;;5.80;28.10;;;;;;4971225;28;20285;-67
2023/04/05 00:15:41;;;;;;;2.20;1.10;;;5.70;28.30;;;;;;4974865;28;20645;-67
2023/04/05 00:18:07;;;;;;;2.53;1.37;;;5.90;27.50;;;;;;4973493;28;20179;-67
2023/04/05 00:20:36;;;;;;;2.20;1.20;;;5.70;27.70;;;;;;4980602;28;20433;-66
2023/04/05 00:23:01;;;;;;;2.25;1.20;;;5.70;27.50;;;;;;4973101;28;20298;-68
2023/04/05 00:25:27;;;;;;;2.20;1.10;;;5.60;28.20;;;;;;4977755;28;20292;-68
2023/04/05 00:27:53;;;;;;;2.23;1.23;;;5.50;29.40;;;;;;4985954;28;20269;-68
2023/04/05 00:30:21;;;;;;;2.20;1.17;;;5.70;27.30;;;;;;4982250;28;20614;-68
2023/04/05 00:32:50;;;;;;;2.22;1.25;;;5.80;26.60;;;;;;4979869;28;20257;-68
2023/04/05 00:35:16;;;;;;;2.72;1.70;;;5.80;26.90;;;;;;4965086;28;20261;-69
2023/04/05 00:37:41;;;;;;;2.35;1.27;;;5.70;28.00;;;;;;4972150;28;20189;-68
2023/04/05 00:40:07;;;;;;;2.30;1.30;;;5.60;28.80;;;;;;4984515;28;20248;-69
2023/04/05 00:42:33;;;;;;;5.85;3.00;;;5.70;28.00;;;;;;4980626;28;20186;-67
2023/04/05 00:44:59;;;;;;;2.30;1.20;;;5.70;29.20;;;;;;4976474;28;20194;-68
2023/04/05 00:47:26;;;;;;;2.20;1.15;;;5.80;27.80;;;;;;4985632;28;20680;-68
2023/04/05 00:49:52;;;;;;;2.47;1.38;;;5.80;27.80;;;;;;4973284;28;20190;-68
2023/04/05 00:52:22;;;;;;;2.20;1.20;;;5.80;27.70;;;;;;4970849;28;20798;-68
2023/04/05 00:54:48;;;;;;;2.30;1.20;;;5.60;28.70;;;;;;4978802;28;20470;-67
2023/04/05 00:57:15;;;;;;;2.20;1.15;;;5.60;28.50;;;;;;4969573;28;20556;-68
2023/04/05 00:59:41;;;;;;;2.20;1.20;;;5.50;29.50;;;;;;4988163;28;20178;-69
2023/04/05 01:02:27;;;;;;;2.30;1.20;;;5.50;29.70;;;;;;4984048;28;20198;-68
2023/04/05 01:05:01;;;;;;;2.40;1.35;;;5.70;28.20;;;;;;4973845;28;20710;-67
2023/04/05 01:07:42;;;;;;;2.20;1.20;;;5.50;29.70;;;;;;4962967;28;20187;-68
2023/04/05 01:10:12;;;;;;;2.17;1.10;;;5.70;28.70;;;;;;4987614;28;20604;-68
2023/04/05 01:12:38;;;;;;;2.45;1.40;;;5.60;28.30;;;;;;4975486;28;20732;-68
2023/04/05 01:15:04;;;;;;;4.38;2.45;;;5.40;29.60;;;;;;4980788;28;20201;-68
2023/04/05 01:17:40;;;;;;;2.20;1.10;;;5.30;29.50;;;;;;4972629;28;20654;-68
2023/04/05 01:20:12;;;;;;;2.30;1.20;;;5.40;28.30;;;;;;4979728;28;20193;-69
2023/04/05 01:22:59;;;;;;;2.20;1.10;;;5.50;28.50;;;;;;4980855;28;20193;-68
2023/04/05 01:26:06;;;;;;;2.22;1.15;;;5.50;29.30;;;;;;4978831;28;20175;-68
2023/04/05 01:28:44;;;;;;;2.50;1.40;;;5.40;28.60;;;;;;4980114;28;20529;-68
2023/04/05 01:31:21;;;;;;;2.30;1.20;;;5.40;28.40;;;;;;4987634;28;20176;-68
2023/04/05 01:33:53;;;;;;;2.50;1.30;;;5.40;28.80;;;;;;4974842;28;20219;-68
2023/04/05 01:36:32;;;;;;;2.20;1.00;;;5.40;28.90;;;;;;4973899;28;20277;-68
2023/04/05 01:39:00;;;;;;;2.20;1.10;;;5.40;29.60;;;;;;4973520;28;20237;-68
2023/04/05 01:41:26;;;;;;;2.30;1.20;;;5.50;27.70;;;;;;4982871;28;20186;-67
2023/04/05 01:43:51;;;;;;;2.30;1.20;;;5.50;27.60;;;;;;4971909;28;20601;-68
2023/04/05 01:46:17;;;;;;;2.30;1.13;;;5.50;29.10;;;;;;4969304;28;20193;-68
2023/04/05 01:48:43;;;;;;;2.30;1.20;;;5.40;29.60;;;;;;4975006;28;20186;-69
2023/04/05 01:51:08;;;;;;;2.50;1.40;;;5.50;28.00;;;;;;4995670;28;20645;-68
2023/04/05 01:53:34;;;;;;;2.20;1.10;;;5.40;28.70;;;;;;4995623;28;20269;-68
2023/04/05 01:56:00;;;;;;;2.30;1.20;;;5.50;28.40;;;;;;4978035;28;20174;-69
2023/04/05 01:58:26;;;;;;;2.40;1.30;;;5.50;28.00;;;;;;4981630;28;20193;-68
2023/04/05 02:00:55;;;;;;;5.72;1.70;;;5.60;28.70;;;;;;4969829;28;20561;-68
2023/04/05 02:03:24;;;;;;;2.30;1.20;;;5.30;29.10;;;;;;4973662;28;20542;-68
2023/04/05 02:05:50;;;;;;;2.40;1.33;;;5.20;30.00;;;;;;4987228;28;20182;-68
2023/04/05 02:08:16;;;;;;;2.50;1.30;;;5.10;29.50;;;;;;4988485;28;20526;-68
2023/04/05 02:10:41;;;;;;;2.30;1.10;;;5.10;29.40;;;;;;4972964;28;20653;-69
2023/04/05 02:13:07;;;;;;;2.30;1.20;;;5.10;29.10;;;;;;4978395;28;20245;-68
2023/04/05 02:15:32;;;;;;;2.30;1.10;;;5.00;29.30;;;;;;4985137;28;20272;-68
2023/04/05 02:18:00;;;;;;;2.50;1.30;;;4.90;30.20;;;;;;4978952;28;20542;-69
2023/04/05 02:20:27;;;;;;;2.60;1.30;;;4.90;30.50;;;;;;4981161;28;20187;-68
2023/04/05 02:22:53;;;;;;;2.50;1.30;;;5.10;29.10;;;;;;4976371;28;20214;-68
2023/04/05 02:25:19;;;;;;;2.70;1.33;;;5.20;28.50;;;;;;4985052;28;20208;-69
2023/04/05 02:27:44;;;;;;;2.40;1.20;;;5.10;28.80;;;;;;4982100;28;20185;-68
2023/04/05 02:30:12;;;;;;;2.40;1.10;;;4.90;29.60;;;;;;4977312;28;20838;-68
2023/04/05 02:32:41;;;;;;;2.50;1.20;;;4.70;30.00;;;;;;4963082;28;20453;-69
2023/04/05 02:35:07;;;;;;;2.63;1.38;;;4.70;30.00;;;;;;4975126;28;20210;-69
2023/04/05 02:37:33;;;;;;;3.00;1.40;;;4.80;29.20;;;;;;4980978;28;20182;-69
2023/04/05 02:39:59;;;;;;;2.60;1.20;;;4.90;29.90;;;;;;4989087;28;20541;-69
2023/04/05 02:42:24;;;;;;;3.33;1.87;;;4.90;28.70;;;;;;4982018;28;20177;-68
2023/04/05 02:44:51;;;;;;;2.40;1.10;;;5.00;27.70;;;;;;4980984;28;20189;-69
2023/04/05 02:47:20;;;;;;;2.60;1.20;;;5.00;27.50;;;;;;4977744;28;20174;-69
2023/04/05 02:49:47;;;;;;;2.47;1.10;;;4.90;29.10;;;;;;4984334;28;20219;-69
2023/04/05 02:52:13;;;;;;;2.60;1.27;;;4.70;29.70;;;;;;4992243;28;20181;-68
2023/04/05 02:54:39;;;;;;;2.50;1.20;;;4.80;29.20;;;;;;4983790;28;20647;-70
2023/04/05 02:57:05;;;;;;;2.50;1.10;;;4.80;29.90;;;;;;4982059;28;20429;-69
2023/04/05 02:59:30;;;;;;;2.80;1.30;;;4.60;29.90;;;;;;4970963;28;20262;-69
2023/04/05 03:01:56;;;;;;;2.50;1.20;;;4.70;29.10;;;;;;4993044;28;20430;-69
2023/04/05 03:04:25;;;;;;;2.60;1.20;;;4.80;28.80;;;;;;4983283;28;20831;-69
2023/04/05 03:06:53;;;;;;;2.50;1.10;;;4.70;30.50;;;;;;4982008;28;20190;-69
2023/04/05 03:09:20;;;;;;;3.55;1.73;;;4.60;30.50;;;;;;4977775;28;20206;-69
2023/04/05 03:11:45;;;;;;;2.60;1.20;;;4.60;30.00;;;;;;4964835;28;20661;-69
2023/04/05 03:14:11;;;;;;;3.10;1.40;;;4.60;30.00;;;;;;4985958;28;20237;-69
2023/04/05 03:16:40;;;;;;;2.60;1.20;;;4.60;29.50;;;;;;4976569;28;20656;-69
2023/04/05 03:19:05;;;;;;;2.70;1.27;;;4.60;29.10;;;;;;4979243;28;20194;-68
2023/04/05 03:21:32;;;;;;;2.80;1.30;;;4.50;30.20;;;;;;4973403;28;20196;-68
2023/04/05 03:23:59;;;;;;;2.60;1.15;;;4.40;28.90;;;;;;4982935;28;20221;-68
2023/04/05 03:26:25;;;;;;;2.60;1.10;;;4.40;30.00;;;;;;4980877;28;20183;-68
2023/04/05 03:28:50;;;;;;;2.67;1.20;;;4.50;29.40;;;;;;4981382;28;20564;-69
2023/04/05 03:31:16;;;;;;;2.90;1.50;;;4.60;29.10;;;;;;4977285;28;20441;-68
2023/04/05 03:33:42;;;;;;;2.60;1.10;;;4.70;29.10;;;;;;4985185;28;20205;-69
2023/04/05 03:36:07;;;;;;;2.70;1.23;;;4.70;29.00;;;;;;4977615;28;20441;-68
2023/04/05 03:38:33;;;;;;;2.60;1.10;;;4.60;29.10;;;;;;4983871;28;20189;-68
2023/04/05 03:41:00;;;;;;;2.60;1.10;;;4.40;30.00;;;;;;4972525;28;20438;-69
2023/04/05 03:43:26;;;;;;;2.70;1.27;;;4.30;30.50;;;;;;4981058;28;20951;-68
2023/04/05 03:45:52;;;;;;;2.60;1.10;;;4.20;30.90;;;;;;4983859;28;20214;-69
2023/04/05 03:48:19;;;;;;;2.70;1.20;;;4.10;31.90;;;;;;4981480;28;20426;-68
2023/04/05 03:50:45;;;;;;;2.65;1.13;;;4.20;30.90;;;;;;4984076;28;20284;-68
2023/04/05 03:53:11;;;;;;;2.70;1.20;;;4.40;29.70;;;;;;4985224;28;20557;-69
2023/04/05 03:55:37;;;;;;;2.60;1.10;;;4.30;30.00;;;;;;4984461;28;20229;-68
2023/04/05 03:58:02;;;;;;;2.80;1.20;;;4.30;30.00;;;;;;4983777;28;20232;-68
2023/04/05 04:00:28;;;;;;;3.27;1.57;;;4.40;29.60;;;;;;4981577;28;20182;-68
2023/04/05 04:02:54;;;;;;;2.87;1.20;;;4.20;30.30;;;;;;4975033;28;20193;-68
2023/04/05 04:05:20;;;;;;;2.90;1.30;;;4.10;31.30;;;;;;4981698;28;20422;-69
2023/04/05 04:07:46;;;;;;;2.70;1.10;;;4.00;31.30;;;;;;4973606;28;20175;-69
2023/04/05 04:10:16;;;;;;;2.80;1.23;;;3.90;32.00;;;;;;4973453;28;20179;-68
2023/04/05 04:12:42;;;;;;;2.72;1.20;;;3.90;31.70;;;;;;4971967;28;21137;-68
2023/04/05 04:15:08;;;;;;;2.70;1.20;;;3.80;31.60;;;;;;4973337;28;20217;-68
2023/04/05 04:17:35;;;;;;;2.90;1.40;;;3.80;32.00;;;;;;4956117;28;20425;-67
2023/04/05 04:20:07;;;;;;;2.67;1.10;;;3.80;31.60;;;;;;4973735;28;20441;-68
2023/04/05 04:22:32;;;;;;;4.00;1.40;;;3.90;31.90;;;;;;4971846;28;20561;-68
2023/04/05 04:25:03;;;;;;;2.70;1.13;;;3.80;31.80;;;;;;4970930;28;20183;-68
2023/04/05 04:27:29;;;;;;;2.70;1.40;;;3.80;32.00;;;;;;4973178;28;20526;-68
2023/04/05 04:30:00;;;;;;;2.78;1.10;;;3.80;31.70;;;;;;4945923;28;20191;-68
2023/04/05 04:32:46;;;;;;;5.25;2.85;;;3.70;31.40;;;;;;4960076;28;20194;-68
2023/04/05 04:35:23;;;;;;;2.70;1.10;;;3.70;30.90;;;;;;4977229;28;20220;-68
2023/04/05 04:38:07;;;;;;;2.90;1.30;;;3.60;31.20;;;;;;4984660;28;20185;-68
2023/04/05 04:40:37;;;;;;;2.90;1.30;;;3.60;31.30;;;;;;4981575;28;20607;-68
2023/04/05 04:43:17;;;;;;;4.38;1.63;;;3.70;31.20;;;;;;4973881;28;20203;-68
2023/04/05 04:45:47;;;;;;;3.25;1.63;;;3.70;31.90;;;;;;4966158;28;20264;-68
2023/04/05 04:48:15;;;;;;;2.80;1.10;;;3.60;32.10;;;;;;4967553;28;20182;-67
2023/04/05 04:50:42;;;;;;;4.57;1.98;;;3.60;32.50;;;;;;4982881;28;20189;-68
2023/04/05 04:53:08;;;;;;;2.90;1.20;;;3.80;30.00;;;;;;4973209;28;20209;-68
2023/04/05 04:55:35;;;;;;;2.90;1.25;;;4.00;29.50;;;;;;4969936;28;20211;-68
2023/04/05 04:58:08;;;;;;;2.90;1.23;;;3.90;30.70;;;;;;4962485;28;20174;-68
2023/04/05 05:00:35;;;;;;;3.10;1.42;;;3.80;30.30;;;;;;4969588;28;20598;-68
2023/04/05 05:03:01;;;;;;;3.03;1.35;;;4.00;29.90;;;;;;4962556;28;20218;-68
2023/04/05 05:05:27;;;;;;;2.90;1.20;;;4.10;29.40;;;;;;4972054;28;20239;-68
2023/04/05 05:07:53;;;;;;;3.00;1.30;;;4.20;29.20;;;;;;4980616;28;20253;-68
2023/04/05 05:10:19;;;;;;;2.80;1.20;;;4.10;29.40;;;;;;4988068;28;20190;-68
2023/04/05 05:12:45;;;;;;;3.00;1.30;;;4.20;29.90;;;;;;4973096;28;20268;-67
2023/04/05 05:15:11;;;;;;;3.07;1.47;;;4.10;30.30;;;;;;4978084;28;20682;-68
2023/04/05 05:17:38;;;;;;;3.45;1.65;;;4.00;31.20;;;;;;4982839;28;20260;-68
2023/04/05 05:20:08;;;;;;;3.10;1.38;;;4.10;30.20;;;;;;4983368;28;20265;-68
2023/04/05 05:22:35;;;;;;;2.85;1.15;;;4.10;30.70;;;;;;4971469;28;20170;-68
2023/04/05 05:25:01;;;;;;;3.20;1.50;;;4.10;30.10;;;;;;4966021;28;20186;-67
2023/04/05 05:27:27;;;;;;;2.85;1.08;;;4.10;30.00;;;;;;4979465;28;20204;-68
2023/04/05 05:29:52;;;;;;;3.53;1.52;;;4.40;32.20;;;;;;4976024;28;20186;-68
2023/04/05 05:32:18;;;;;;;3.10;1.30;;;3.90;30.60;;;;;;4975748;28;20651;-68
2023/04/05 05:34:44;;;;;;;2.80;1.10;;;4.00;30.30;;;;;;4950149;28;20260;-68
2023/04/05 05:37:11;;;;;;;3.13;1.40;;;4.10;31.00;;;;;;4981100;28;20606;-68
2023/04/05 05:39:37;;;;;;;3.10;1.35;;;4.10;30.70;;;;;;4983177;28;20184;-69
2023/04/05 05:42:03;;;;;;;2.90;1.00;;;4.20;30.20;;;;;;4982929;28;20182;-69
2023/04/05 05:44:29;;;;;;;3.10;1.30;;;4.30;30.40;;;;;;4974824;28;20461;-69
2023/04/05 05:46:55;;;;;;;3.75;1.55;;;4.20;30.00;;;;;;4977365;28;20182;-70
2023/04/05 05:49:22;;;;;;;3.67;1.50;;;4.20;30.40;;;;;;4977457;28;20193;-70
2023/04/05 05:51:48;;;;;;;3.50;1.60;;;4.40;30.50;;;;;;4986224;28;20424;-68
2023/04/05 05:54:14;;;;;;;3.30;1.40;;;4.50;30.10;;;;;;4978451;28;20203;-68
2023/04/05 05:56:40;;;;;;;3.00;1.10;;;4.60;30.50;;;;;;4972403;28;20593;-68
2023/04/05 05:59:05;;;;;;;3.10;1.20;;;4.70;29.60;;;;;;4977825;28;20438;-68
2023/04/05 06:01:33;;;;;;;3.00;1.10;;;4.70;30.70;;;;;;4978045;28;20178;-69
2023/04/05 06:03:59;;;;;;;3.05;1.13;;;4.90;30.00;;;;;;4975675;28;20262;-69
2023/04/05 06:06:25;;;;;;;3.33;1.30;;;5.00;29.60;;;;;;4973372;28;20210;-69
2023/04/05 06:08:51;;;;;;;4.07;1.75;;;5.10;29.40;;;;;;4975803;28;20650;-69
2023/04/05 06:11:21;;;;;;;3.10;1.20;;;5.20;29.50;;;;;;4974027;28;20241;-68
2023/04/05 06:13:47;;;;;;;3.13;1.17;;;5.20;28.20;;;;;;4985561;28;21087;-68
2023/04/05 06:16:13;;;;;;;3.10;1.10;;;5.20;29.30;;;;;;4962166;28;20179;-68
2023/04/05 06:18:39;;;;;;;3.40;1.40;;;5.30;29.20;;;;;;4988925;28;20754;-68
2023/04/05 06:21:05;;;;;;;3.10;1.10;;;5.40;28.20;;;;;;4984993;28;20257;-68
2023/04/05 06:23:31;;;;;;;3.37;1.47;;;5.60;27.60;;;;;;4983898;28;20653;-69
2023/04/05 06:25:56;;;;;;;3.00;1.10;;;5.80;27.40;;;;;;4966677;28;20436;-69
2023/04/05 06:28:22;;;;;;;3.07;1.30;;;5.90;26.00;;;;;;4969045;28;20435;-69
2023/04/05 06:30:47;;;;;;;2.90;1.10;;;5.80;26.50;;;;;;4984821;28;20189;-69
2023/04/05 06:33:13;;;;;;;2.90;1.10;;;6.00;26.40;;;;;;4981292;28;20218;-69
2023/04/05 06:35:39;;;;;;;3.10;1.30;;;6.10;25.60;;;;;;4970546;28;20229;-69
2023/04/05 06:38:04;;;;;;;3.00;1.27;;;6.10;25.80;;;;;;4978327;28;20212;-68
2023/04/05 06:40:30;;;;;;;3.30;1.40;;;6.40;23.90;;;;;;4984288;28;20240;-69
2023/04/05 06:42:56;;;;;;;4.17;1.63;;;6.50;24.30;;;;;;4981663;28;20195;-68
2023/04/05 06:45:22;;;;;;;3.20;1.40;;;6.50;25.50;;;;;;4983137;28;20182;-69
2023/04/05 06:47:48;;;;;;;3.13;1.30;;;6.50;25.30;;;;;;4982483;28;20265;-69
2023/04/05 06:50:13;;;;;;;2.80;1.30;;;6.70;25.50;;;;;;4982085;28;20441;-69
2023/04/05 06:52:39;;;;;;;3.10;1.73;;;6.60;25.30;;;;;;4979511;28;20268;-69
2023/04/05 06:55:05;;;;;;;2.60;1.10;;;6.50;24.80;;;;;;4984973;28;20206;-69
2023/04/05 06:57:31;;;;;;;2.70;1.23;;;5.90;25.10;;;;;;4983122;28;20182;-69
2023/04/05 06:59:57;;;;;;;4.30;2.10;;;6.20;25.10;;;;;;4952291;28;20438;-69
2023/04/05 07:02:22;;;;;;;2.50;1.20;;;6.60;25.40;;;;;;4983240;28;20205;-68
2023/04/05 07:04:48;;;;;;;2.30;1.10;;;6.90;24.30;;;;;;4974253;28;20186;-68
2023/04/05 07:07:14;;;;;;;2.50;1.33;;;7.00;24.00;;;;;;4981825;28;20626;-68
2023/04/05 07:09:40;;;;;;;4.60;1.70;;;7.00;23.90;;;;;;4980104;28;20187;-68
2023/04/05 07:12:07;;;;;;;2.47;1.30;;;6.90;24.70;;;;;;4969919;28;20964;-69
2023/04/05 07:14:35;;;;;;;2.20;1.10;;;6.20;25.60;;;;;;4984083;28;20559;-72
2023/04/05 07:17:01;;;;;;;2.63;1.40;;;5.90;26.50;;;;;;4979964;28;20194;-75
2023/04/05 07:19:27;;;;;;;2.67;1.50;;;5.90;26.60;;;;;;4986789;28;20185;-71
2023/04/05 07:21:54;;;;;;;2.20;1.10;;;5.60;27.30;;;;;;4973438;28;20559;-72
2023/04/05 07:24:20;;;;;;;2.67;1.42;;;5.40;28.70;;;;;;4974732;28;20282;-71
2023/04/05 07:26:45;;;;;;;2.20;1.10;;;5.50;28.60;;;;;;4982608;28;20238;-72
2023/04/05 07:29:11;;;;;;;2.50;1.53;;;5.70;26.90;;;;;;4982711;28;20171;-68
2023/04/05 07:31:38;;;;;;;2.85;1.35;;;5.90;27.70;;;;;;4975928;28;20187;-67
2023/04/05 07:34:04;;;;;;;2.20;1.15;;;6.30;27.30;;;;;;4978651;28;20628;-68
2023/04/05 07:36:30;;;;;;;2.40;1.40;;;6.70;25.70;;;;;;4985838;28;20182;-68
2023/04/05 07:38:56;;;;;;;2.20;1.20;;;6.10;26.90;;;;;;4987307;28;20186;-68
2023/04/05 07:41:24;;;;;;;2.20;1.10;;;5.80;26.10;;;;;;4975334;28;20654;-68
2023/04/05 07:43:50;;;;;;;2.20;1.10;;;6.10;27.60;;;;;;4981285;28;20681;-67
2023/04/05 07:46:16;;;;;;;3.77;1.97;;;6.60;26.70;;;;;;4980842;28;20187;-68
2023/04/05 07:48:41;;;;;;;2.20;1.20;;;6.80;25.20;;;;;;4981855;28;20541;-67
2023/04/05 07:51:08;;;;;;;2.53;1.43;;;6.30;26.00;;;;;;4970792;28;20614;-67
2023/04/05 07:53:35;;;;;;;2.35;1.35;;;6.30;26.20;;;;;;4991945;28;20194;-68
2023/04/05 07:56:05;;;;;;;2.25;1.30;;;6.90;25.40;;;;;;4977982;28;20186;-68
2023/04/05 07:58:31;;;;;;;2.00;1.10;;;7.20;25.80;;;;;;4982813;28;20174;-67
2023/04/05 08:01:01;;;;;;;2.30;1.30;;;6.60;25.80;;;;;;4969277;28;20258;-67
2023/04/05 08:03:28;;;;;;;2.00;1.20;;;6.90;27.00;;;;;;4990787;28;20198;-67
2023/04/05 08:05:55;;;;;;;2.30;1.42;;;7.60;25.40;;;;;;4992717;28;20413;-68
2023/04/05 08:08:22;;;;;;;2.80;1.73;;;7.30;24.60;;;;;;4992983;28;20166;-68
2023/04/05 08:10:48;;;;;;;2.67;1.83;;;7.30;25.00;;;;;;4990378;28;20197;-68
2023/04/05 08:13:14;;;;;;;2.20;1.40;;;7.00;25.90;;;;;;4972871;28;20521;-68
2023/04/05 08:15:40;;;;;;;2.20;1.40;;;7.10;25.10;;;;;;4992508;28;20201;-71
2023/04/05 08:18:06;;;;;;;2.00;1.30;;;7.50;26.10;;;;;;4970128;28;20182;-68
2023/04/05 08:20:32;;;;;;;2.43;1.63;;;8.20;23.80;;;;;;4971862;28;20249;-68
2023/04/05 08:22:58;;;;;;;1.92;1.20;;;8.30;23.70;;;;;;4968592;28;20896;-68
2023/04/05 08:25:23;;;;;;;2.40;1.60;;;7.80;23.10;;;;;;4986196;28;20182;-68
2023/04/05 08:27:49;;;;;;;2.63;1.63;;;7.30;24.30;;;;;;4972643;28;20178;-68
2023/04/05 08:30:15;;;;;;;1.90;1.10;;;7.30;23.90;;;;;;4978289;28;20189;-68
2023/04/05 08:32:41;;;;;;;2.35;1.55;;;7.70;23.60;;;;;;4971516;28;20198;-68
2023/04/05 08:35:07;;;;;;;2.00;1.30;;;7.80;23.30;;;;;;4973731;28;20272;-67
2023/04/05 08:37:35;;;;;;;2.93;1.83;;;7.40;23.00;;;;;;4982994;28;20186;-69
2023/04/05 08:40:02;;;;;;;2.00;1.40;;;7.40;23.80;;;;;;4979933;28;20468;-68
2023/04/05 08:42:36;;;;;;;1.90;1.20;;;7.80;21.90;;;;;;4974282;28;20183;-70
2023/04/05 08:45:10;;;;;;;2.00;1.30;;;7.70;22.70;;;;;;4969375;28;20230;-68
2023/04/05 08:47:37;;;;;;;1.88;1.13;;;7.30;23.00;;;;;;4972184;28;20253;-68
2023/04/05 08:50:04;;;;;;;2.00;1.27;;;7.30;23.50;;;;;;4975942;28;20175;-69
2023/04/05 08:52:32;;;;;;;2.25;1.35;;;7.30;23.20;;;;;;4977785;28;20200;-69
2023/04/05 08:54:57;;;;;;;1.90;1.20;;;7.50;22.60;;;;;;4983714;28;20202;-68
2023/04/05 08:57:29;;;;;;;2.10;1.30;;;8.00;21.60;;;;;;4983285;28;20189;-68
2023/04/05 08:59:57;;;;;;;2.00;1.27;;;8.00;21.50;;;;;;4985648;28;20287;-68
2023/04/05 09:02:24;;;;;;;3.30;1.42;;;8.20;20.80;;;;;;4970353;28;20185;-69
2023/04/05 09:04:51;;;;;;;2.22;1.65;;;7.90;22.10;;;;;;4976130;28;20177;-68
2023/04/05 09:07:19;;;;;;;1.80;1.10;;;8.30;21.20;;;;;;4963713;28;20180;-68
2023/04/05 09:09:51;;;;;;;2.03;1.30;;;8.10;21.20;;;;;;4987427;28;20178;-68
2023/04/05 09:12:21;;;;;;;2.00;1.27;;;8.90;20.90;;;;;;4974411;28;20199;-69
2023/04/05 09:14:48;;;;;;;2.00;1.30;;;9.20;19.00;;;;;;4979058;28;20202;-69
2023/04/05 09:17:17;;;;;;;2.22;1.33;;;8.50;19.60;;;;;;4972263;28;20211;-67
2023/04/05 09:19:42;;;;;;;2.10;1.40;;;8.80;20.20;;;;;;4981086;28;20180;-68
2023/04/05 09:22:10;;;;;;;1.90;1.20;;;9.40;19.80;;;;;;4975589;28;20230;-68
2023/04/05 09:24:44;;;;;;;2.05;1.35;;;9.20;18.30;;;;;;4976994;28;20242;-68
2023/04/05 09:27:11;;;;;;;2.90;2.10;;;9.30;18.90;;;;;;4978226;28;20619;-68
2023/04/05 09:29:39;;;;;;;2.25;1.48;;;8.90;17.80;;;;;;4981957;28;20184;-68
2023/04/05 09:32:07;;;;;;;1.90;1.20;;;9.20;19.00;;;;;;4973369;28;20758;-68
2023/04/05 09:34:35;;;;;;;2.20;1.50;;;10.00;18.60;;;;;;4963595;28;20237;-68
2023/04/05 09:37:01;;;;;;;2.40;1.60;;;10.70;18.30;;;;;;4968586;28;20668;-68
2023/04/05 09:39:28;;;;;;;3.40;1.53;;;11.10;16.60;;;;;;4974093;28;20195;-68
2023/04/05 09:42:12;;;;;;;2.28;1.35;;;11.00;16.00;;;;;;4974831;28;20413;-68
2023/04/05 09:45:00;;;;;;;2.00;1.20;;;11.00;16.10;;;;;;4983028;28;20561;-68
2023/04/05 09:47:30;;;;;;;2.00;1.38;;;10.70;14.70;;;;;;4984291;28;20181;-67
2023/04/05 09:49:59;;;;;;;1.87;1.17;;;10.40;16.20;;;;;;4982515;28;20547;-68
2023/04/05 09:52:34;;;;;;;1.98;1.27;;;9.70;17.00;;;;;;4968225;28;20473;-67
2023/04/05 09:55:01;;;;;;;1.98;1.20;;;9.60;17.20;;;;;;4975880;28;20744;-70
2023/04/05 09:57:31;;;;;;;1.90;1.20;;;9.50;16.90;;;;;;4976713;28;20761;-68
2023/04/05 09:59:57;;;;;;;2.00;1.30;;;9.10;16.80;;;;;;4983364;28;20197;-68
2023/04/05 10:02:23;;;;;;;1.90;1.27;;;9.00;17.40;;;;;;4978653;28;20686;-67
2023/04/05 10:04:49;;;;;;;2.10;1.30;;;9.20;18.00;;;;;;5003012;28;20241;-72
2023/04/05 10:07:17;;;;;;;1.95;1.20;;;10.10;17.60;;;;;;4993817;28;20181;-67
2023/04/05 10:09:46;;;;;;;1.90;1.10;;;10.70;15.90;;;;;;4972527;28;20193;-68
2023/04/05 10:12:25;;;;;;;2.07;1.30;;;11.10;15.20;;;;;;4972530;28;20226;-68
2023/04/05 10:14:52;;;;;;;2.30;1.60;;;10.70;14.60;;;;;;4972697;28;20806;-68
2023/04/05 10:17:30;;;;;;;2.20;1.40;;;11.40;15.10;;;;;;4971145;28;20445;-68
2023/04/05 10:20:01;;;;;;;2.20;1.40;;;11.90;15.10;;;;;;4977494;28;20503;-68
2023/04/05 10:22:44;;;;;;;3.03;1.77;;;12.30;14.90;;;;;;4968264;28;20967;-68
2023/04/05 10:25:19;;;;;;;2.00;1.30;;;12.40;14.00;;;;;;4971011;28;20449;-68
2023/04/05 10:27:58;;;;;;;2.40;1.53;;;12.50;13.60;;;;;;4965860;28;20936;-67
2023/04/05 10:30:31;;;;;;;4.93;1.60;;;13.00;14.20;;;;;;4967125;28;20495;-68
2023/04/05 10:33:03;;;;;;;1.90;1.10;;;11.60;14.20;;;;;;4974951;28;20434;-68
2023/04/05 10:36:04;;;;;;;2.10;1.30;;;12.10;15.90;;;;;;4975273;28;20457;-68
2023/04/05 10:38:52;;;;;;;2.60;1.50;;;12.10;14.10;;;;;;4973360;28;20465;-68
2023/04/05 10:41:17;;;;;;;2.20;1.40;;;12.10;14.50;;;;;;4974592;28;20402;-67
2023/04/05 10:43:45;;;;;;;2.10;1.30;;;12.50;14.30;;;;;;4974916;28;20910;-67
2023/04/05 10:46:12;;;;;;;3.40;1.80;;;12.10;12.70;;;;;;4974248;28;20178;-67
2023/04/05 10:48:57;;;;;;;2.07;1.20;;;12.00;14.10;;;;;;4973634;28;20446;-67
2023/04/05 10:51:25;;;;;;;2.13;1.30;;;11.80;14.30;;;;;;4976480;28;20806;-68
2023/04/05 10:53:51;;;;;;;2.27;1.43;;;13.50;14.00;;;;;;4969735;28;20470;-68
2023/04/05 10:56:19;;;;;;;3.50;1.70;;;14.30;12.50;;;;;;4969746;28;20567;-68
2023/04/05 10:58:46;;;;;;;2.67;1.73;;;13.60;12.30;;;;;;4972750;28;20440;-68
2023/04/05 11:01:12;;;;;;;2.47;1.53;;;13.80;11.90;;;;;;4970339;28;20441;-69
2023/04/05 11:03:45;;;;;;;2.43;1.53;;;14.80;12.80;;;;;;4986033;28;20465;-66
2023/04/05 11:06:22;;;;;;;2.30;1.50;;;15.40;10.20;;;;;;4982698;28;20445;-66
2023/04/05 11:08:50;;;;;;;2.80;1.90;;;13.60;11.10;;;;;;4966935;28;20781;-66
2023/04/05 11:11:17;;;;;;;2.90;1.80;;;14.70;11.00;;;;;;4970653;28;20449;-67
2023/04/05 11:13:57;;;;;;;3.80;2.00;;;15.80;10.70;;;;;;4974814;28;20608;-67
2023/04/05 11:16:37;;;;;;;2.73;1.60;;;17.40;9.30;;;;;;4975902;28;20439;-67
2023/04/05 11:19:03;;;;;;;2.90;1.80;;;18.10;9.60;;;;;;4961996;28;20484;-67
2023/04/05 11:21:30;;;;;;;3.73;1.60;;;18.20;9.40;;;;;;4977466;28;21825;-67
2023/04/05 11:24:03;;;;;;;3.53;1.63;;;17.60;8.70;;;;;;4966323;28;20617;-67
2023/04/05 11:26:55;;;;;;;3.47;1.77;;;18.40;8.70;;;;;;4974912;28;20521;-69
2023/04/05 11:29:46;;;;;;;4.20;2.03;;;19.30;9.10;;;;;;4980234;28;20441;-68
2023/04/05 11:32:12;;;;;;;3.30;1.40;;;19.40;8.90;;;;;;4966391;28;20442;-68
2023/04/05 11:34:41;;;;;;;3.43;1.60;;;18.90;7.90;;;;;;4970233;28;20478;-68
2023/04/05 11:37:07;;;;;;;4.83;2.20;;;18.90;6.80;;;;;;4969695;28;20671;-70
2023/04/05 11:39:33;;;;;;;3.50;1.60;;;19.50;8.30;;;;;;4970890;28;20451;-69
2023/04/05 11:42:03;;;;;;;4.00;1.50;;;19.20;6.90;;;;;;4969299;28;20222;-70
2023/04/05 11:44:51;;;;;;;3.77;1.63;;;19.20;9.40;;;;;;4970994;28;20341;-70
2023/04/05 11:47:20;;;;;;;4.40;2.30;;;20.70;5.30;;;;;;4971603;28;20468;-70
2023/04/05 11:49:50;;;;;;;5.23;2.20;;;22.20;6.10;;;;;;4969523;28;20481;-70
2023/04/05 11:52:17;;;;;;;4.10;1.87;;;20.70;4.60;;;;;;4964467;28;20955;-70
2023/04/05 11:54:47;;;;;;;4.30;1.60;;;18.50;8.10;;;;;;4967039;28;20479;-70
2023/04/05 11:57:22;;;;;;;3.30;1.40;;;17.30;7.30;;;;;;4968512;28;20595;-70
2023/04/05 11:59:52;;;;;;;3.60;1.70;;;18.00;10.80;;;;;;4970969;28;20470;-68
2023/04/05 12:02:19;;;;;;;6.40;2.10;;;20.40;7.80;;;;;;4970651;28;20437;-69
2023/04/05 12:04:54;;;;;;;4.60;1.50;;;21.20;8.00;;;;;;4968110;28;20818;-69
2023/04/05 12:07:19;;;;;;;4.10;1.80;;;21.40;6.80;;;;;;4964670;28;20441;-68
2023/04/05 12:09:58;;;;;;;4.57;1.83;;;21.50;5.20;;;;;;4974989;28;20433;-68
2023/04/05 12:12:24;;;;;;;4.97;1.73;;;21.20;7.30;;;;;;4970786;28;20720;-69
2023/04/05 12:14:49;;;;;;;9.20;2.13;;;20.90;6.60;;;;;;4967345;28;20472;-68
2023/04/05 12:17:15;;;;;;;4.00;1.80;;;19.70;5.50;;;;;;4976120;28;20232;-68
2023/04/05 12:19:41;;;;;;;4.50;1.97;;;19.20;7.60;;;;;;4965529;28;20265;-69
2023/04/05 12:22:07;;;;;;;3.90;1.60;;;19.10;7.10;;;;;;4978472;28;20182;-68
2023/04/05 12:24:33;;;;;;;4.30;1.80;;;20.70;7.60;;;;;;4981193;28;20488;-68
2023/04/05 12:26:59;;;;;;;4.87;2.03;;;20.70;5.80;;;;;;4966659;28;21019;-69
2023/04/05 12:29:25;;;;;;;5.20;2.00;;;20.10;6.00;;;;;;4987951;28;20211;-68
2023/04/05 12:31:51;;;;;;;4.70;1.90;;;19.30;7.80;;;;;;4968131;28;20440;-69
2023/04/05 12:34:24;;;;;;;4.23;1.60;;;19.30;5.70;;;;;;4975224;28;20214;-68
2023/04/05 12:36:51;;;;;;;4.10;1.70;;;19.10;7.20;;;;;;4968499;28;20953;-69
2023/04/05 12:39:16;;;;;;;4.60;1.80;;;19.30;6.30;;;;;;4977962;28;20424;-69
2023/04/05 12:41:42;;;;;;;4.87;2.03;;;19.70;6.50;;;;;;4977230;28;20439;-68
2023/04/05 12:44:14;;;;;;;4.30;1.70;;;20.10;5.20;;;;;;4968755;28;20214;-69
2023/04/05 12:46:44;;;;;;;3.97;1.50;;;19.70;8.30;;;;;;4975111;28;20192;-69
2023/04/05 12:49:19;;;;;;;5.40;2.20;;;21.00;5.40;;;;;;4982785;28;20532;-69
2023/04/05 12:51:45;;;;;;;6.10;2.13;;;23.00;5.10;;;;;;4968916;28;20436;-69
2023/04/05 12:54:23;;;;;;;4.60;1.73;;;24.00;3.50;;;;;;4966114;28;20493;-69
2023/04/05 12:56:51;;;;;;;5.07;2.00;;;24.70;4.70;;;;;;4975724;28;20964;-69
2023/04/05 12:59:17;;;;;;;4.93;1.90;;;23.20;4.10;;;;;;4961841;28;20461;-69
2023/04/05 13:01:43;;;;;;;5.80;2.30;;;24.60;3.50;;;;;;4983815;28;20963;-69